createdAt,value
2022-09-01T00:01:46.307Z,20.63
2022-09-01T00:04:16.492Z,24.30
2022-09-01T00:06:46.842Z,21.77
2022-09-01T00:09:16.122Z,21.70
2022-09-01T00:11:50.710Z,22.93
2022-09-01T00:14:30.282Z,23.37
2022-09-01T00:17:01.054Z,23.53
2022-09-01T00:19:30.124Z,23.20
2022-09-01T00:22:00.135Z,21.73
2022-09-01T00:24:28.656Z,24.77
2022-09-01T00:26:58.812Z,23.37
2022-09-01T00:29:28.557Z,22.97
2022-09-01T00:31:56.486Z,18.87
2022-09-01T00:34:25.052Z,21.67
2022-09-01T00:36:53.380Z,21.70
2022-09-01T00:39:22.637Z,21.17
2022-09-01T00:41:51.598Z,23.90
2022-09-01T00:44:24.782Z,22.27
2022-09-01T00:46:55.283Z,22.23
2022-09-01T00:49:25.573Z,21.17
2022-09-01T00:51:56.920Z,21.33
2022-09-01T00:54:29.128Z,20.80
2022-09-01T00:56:58.074Z,23.03
2022-09-01T00:59:27.522Z,23.67
2022-09-01T01:01:55.436Z,22.70
2022-09-01T01:04:24.304Z,22.53
2022-09-01T01:06:58.990Z,23.13
2022-09-01T01:09:32.919Z,25.23
2022-09-01T01:12:01.030Z,23.57
2022-09-01T01:14:31.562Z,22.23
2022-09-01T01:17:00.508Z,24.77
2022-09-01T01:19:50.654Z,22.17
2022-09-01T01:22:51.163Z,24.07
2022-09-01T01:25:22.504Z,24.33
2022-09-01T01:27:50.495Z,24.17
2022-09-01T01:30:21.000Z,24.27
2022-09-01T01:32:49.447Z,22.73
2022-09-01T01:35:22.003Z,23.37
2022-09-01T01:37:50.502Z,21.93
2022-09-01T01:40:19.913Z,23.83
2022-09-01T01:42:51.841Z,20.83
2022-09-01T01:45:21.706Z,23.77
2022-09-01T01:47:53.466Z,20.50
2022-09-01T01:50:21.566Z,21.47
2022-09-01T01:52:49.398Z,22.73
2022-09-01T01:55:29.128Z,21.10
2022-09-01T01:57:59.272Z,23.27
2022-09-01T02:00:30.469Z,21.07
2022-09-01T02:02:59.037Z,18.83
2022-09-01T02:05:28.888Z,16.77
2022-09-01T02:08:00.145Z,20.57
2022-09-01T02:10:31.090Z,19.37
2022-09-01T02:13:04.488Z,18.73
2022-09-01T02:15:38.432Z,19.40
2022-09-01T02:18:06.487Z,18.07
2022-09-01T02:20:34.559Z,19.67
2022-09-01T02:23:10.962Z,19.93
2022-09-01T02:25:53.931Z,20.23
2022-09-01T02:28:32.087Z,20.13
2022-09-01T02:31:04.061Z,21.07
2022-09-01T02:33:32.602Z,17.60
2022-09-01T02:36:01.559Z,16.87
2022-09-01T02:38:34.330Z,15.17
2022-09-01T02:41:03.797Z,15.03
2022-09-01T02:43:33.816Z,15.30
2022-09-01T02:46:02.974Z,18.40
2022-09-01T02:48:34.230Z,15.20
2022-09-01T02:51:03.388Z,15.13
2022-09-01T02:53:31.730Z,15.43
2022-09-01T02:55:59.920Z,15.67
2022-09-01T02:58:28.250Z,14.90
2022-09-01T03:01:00.555Z,15.00
2022-09-01T03:03:33.488Z,15.27
2022-09-01T03:06:01.537Z,14.90
2022-09-01T03:08:31.804Z,18.50
2022-09-01T03:11:02.255Z,15.37
2022-09-01T03:13:31.380Z,16.57
2022-09-01T03:16:01.127Z,17.97
2022-09-01T03:18:30.507Z,15.73
2022-09-01T03:20:58.762Z,16.40
2022-09-01T03:23:28.257Z,13.77
2022-09-01T03:25:56.270Z,15.00
2022-09-01T03:28:24.693Z,13.93
2022-09-01T03:30:53.963Z,14.23
2022-09-01T03:33:24.170Z,13.77
2022-09-01T03:35:52.034Z,14.90
2022-09-01T03:38:23.329Z,18.50
2022-09-01T03:40:52.804Z,17.77
2022-09-01T03:43:23.736Z,18.27
2022-09-01T03:45:51.490Z,18.87
2022-09-01T03:48:20.697Z,20.40
2022-09-01T03:50:50.219Z,20.87
2022-09-01T03:53:20.548Z,23.27
2022-09-01T03:55:49.039Z,20.47
2022-09-01T03:58:19.954Z,24.97
2022-09-01T04:00:49.409Z,25.93
2022-09-01T04:03:28.334Z,26.23
2022-09-01T04:05:59.323Z,23.27
2022-09-01T04:08:32.691Z,22.73
2022-09-01T04:11:02.985Z,22.50
2022-09-01T04:13:32.204Z,21.63
2022-09-01T04:16:03.317Z,23.67
2022-09-01T04:18:30.725Z,25.50
2022-09-01T04:21:06.971Z,23.70
2022-09-01T04:23:37.234Z,29.03
2022-09-01T04:26:10.165Z,37.47
2022-09-01T04:28:41.216Z,51.17
2022-09-01T04:31:15.888Z,38.60
2022-09-01T04:33:46.764Z,37.10
2022-09-01T04:36:19.849Z,29.27
2022-09-01T04:38:47.892Z,31.23
2022-09-01T04:41:17.960Z,29.70
2022-09-01T04:43:47.542Z,28.33
2022-09-01T04:46:15.502Z,30.80
2022-09-01T04:48:46.128Z,34.03
2022-09-01T04:51:15.674Z,32.47
2022-09-01T04:53:49.020Z,27.60
2022-09-01T04:56:19.959Z,27.80
2022-09-01T04:58:48.256Z,29.50
2022-09-01T05:01:17.642Z,26.77
2022-09-01T05:03:46.361Z,29.23
2022-09-01T05:06:14.677Z,31.60
2022-09-01T05:08:43.629Z,26.30
2022-09-01T05:11:21.146Z,27.53
2022-09-01T05:13:49.848Z,24.63
2022-09-01T05:16:22.788Z,25.67
2022-09-01T05:18:55.908Z,27.20
2022-09-01T05:21:29.353Z,30.93
2022-09-01T05:23:57.332Z,33.30
2022-09-01T05:26:27.746Z,28.97
2022-09-01T05:28:57.691Z,31.33
2022-09-01T05:31:28.231Z,32.00
2022-09-01T05:33:58.351Z,36.03
2022-09-01T05:36:26.843Z,38.23
2022-09-01T05:38:54.855Z,33.97
2022-09-01T05:41:24.107Z,34.10
2022-09-01T05:44:00.023Z,33.50
2022-09-01T05:46:28.796Z,36.77
2022-09-01T05:48:58.075Z,39.47
2022-09-01T05:51:46.257Z,33.73
2022-09-01T05:54:18.782Z,30.47
2022-09-01T05:56:46.803Z,33.47
2022-09-01T05:59:24.894Z,35.07
2022-09-01T06:01:53.849Z,35.77
2022-09-01T06:04:23.029Z,33.93
2022-09-01T06:07:08.453Z,30.40
2022-09-01T06:09:41.130Z,40.70
2022-09-01T06:12:10.388Z,38.37
2022-09-01T06:14:39.555Z,34.20
2022-09-01T06:17:11.877Z,42.97
2022-09-01T06:19:41.999Z,40.83
2022-09-01T06:22:10.995Z,38.90
2022-09-01T06:24:40.001Z,38.40
2022-09-01T06:27:10.277Z,43.03
2022-09-01T06:29:40.229Z,37.40
2022-09-01T06:32:09.933Z,41.87
2022-09-01T06:34:38.021Z,39.90
2022-09-01T06:37:07.079Z,36.17
2022-09-01T06:39:35.544Z,35.53
2022-09-01T06:42:06.679Z,31.40
2022-09-01T06:44:40.783Z,32.30
2022-09-01T06:47:10.721Z,37.13
2022-09-01T06:49:41.188Z,34.17
2022-09-01T06:52:09.512Z,40.73
2022-09-01T06:54:39.648Z,39.53
2022-09-01T06:59:57.990Z,35.63
2022-09-01T07:02:27.819Z,38.97
2022-09-01T07:04:56.357Z,35.37
2022-09-01T07:13:05.743Z,33.87
2022-09-01T07:18:25.488Z,36.37
2022-09-01T07:21:36.816Z,35.37
2022-09-01T07:24:05.935Z,32.43
2022-09-01T07:26:35.637Z,33.47
2022-09-01T07:29:06.342Z,27.83
2022-09-01T07:34:46.141Z,34.70
2022-09-01T07:38:46.909Z,28.57
2022-09-01T07:42:30.104Z,32.53
2022-09-01T07:45:30.815Z,28.13
2022-09-01T07:48:00.271Z,26.93
2022-09-01T07:53:19.339Z,30.27
2022-09-01T07:55:50.880Z,26.43
2022-09-01T07:58:19.401Z,26.20
2022-09-01T08:00:50.132Z,24.63
2022-09-01T08:03:19.329Z,24.30
2022-09-01T08:05:51.412Z,23.33
2022-09-01T08:08:19.579Z,25.03
2022-09-01T08:10:49.469Z,25.77
2022-09-01T08:13:21.116Z,24.60
2022-09-01T08:18:53.099Z,26.65
2022-09-01T08:21:23.586Z,24.20
2022-09-01T08:23:51.812Z,25.02
2022-09-01T08:26:21.513Z,24.65
2022-09-01T08:28:55.621Z,23.13
2022-09-01T08:31:24.757Z,24.70
2022-09-01T08:33:52.992Z,24.08
2022-09-01T08:36:24.831Z,25.02
2022-09-01T08:38:55.927Z,25.07
2022-09-01T08:41:28.612Z,22.70
2022-09-01T08:44:10.067Z,23.07
2022-09-01T08:46:40.099Z,24.23
2022-09-01T08:49:24.757Z,22.93
2022-09-01T08:51:59.046Z,25.63
2022-09-01T08:54:33.696Z,26.02
2022-09-01T08:57:05.307Z,24.17
2022-09-01T08:59:33.544Z,22.45
2022-09-01T09:02:05.634Z,22.52
2022-09-01T09:04:47.646Z,23.95
2022-09-01T09:07:20.064Z,22.92
2022-09-01T09:09:54.072Z,19.90
2022-09-01T09:12:48.880Z,18.77
2022-09-01T09:15:20.861Z,22.70
2022-09-01T09:17:59.983Z,20.83
2022-09-01T09:20:28.384Z,17.08
2022-09-01T09:22:59.765Z,18.58
2022-09-01T09:25:29.866Z,22.58
2022-09-01T09:28:01.598Z,23.58
2022-09-01T09:30:31.639Z,21.45
2022-09-01T09:33:46.720Z,18.95
2022-09-01T09:35:50.118Z,22.27
2022-09-01T09:38:28.645Z,20.13
2022-09-01T09:41:17.361Z,16.02
2022-09-01T09:43:49.426Z,16.42
2022-09-01T09:46:25.740Z,16.67
2022-09-01T09:49:08.859Z,17.58
2022-09-01T09:51:36.809Z,17.75
2022-09-01T09:54:28.526Z,16.02
2022-09-01T09:57:13.499Z,14.43
2022-09-01T09:59:58.711Z,17.98
2022-09-01T10:02:32.242Z,14.85
2022-09-01T10:05:01.732Z,13.05
2022-09-01T10:07:32.026Z,12.82
2022-09-01T10:10:01.703Z,13.23
2022-09-01T10:12:34.033Z,14.50
2022-09-01T10:15:06.970Z,13.43
2022-09-01T10:17:43.652Z,13.13
2022-09-01T10:20:14.142Z,12.00
2022-09-01T10:22:42.599Z,12.50
2022-09-01T10:25:15.394Z,11.45
2022-09-01T10:27:47.166Z,12.05
2022-09-01T10:30:19.607Z,12.38
2022-09-01T10:32:55.207Z,11.98
2022-09-01T10:35:25.852Z,11.27
2022-09-01T10:37:54.215Z,12.23
2022-09-01T10:40:36.245Z,13.70
2022-09-01T10:43:27.591Z,12.95
2022-09-01T10:46:05.186Z,13.38
2022-09-01T10:48:48.358Z,11.15
2022-09-01T10:51:38.940Z,13.65
2022-09-01T10:54:08.179Z,11.32
2022-09-01T10:56:44.329Z,17.60
2022-09-01T10:59:38.815Z,16.92
2022-09-01T11:02:26.081Z,12.75
2022-09-01T11:05:12.833Z,12.82
2022-09-01T11:10:35.374Z,13.07
2022-09-01T11:13:15.863Z,16.13
2022-09-01T11:15:45.871Z,14.88
2022-09-01T11:18:17.615Z,14.02
2022-09-01T11:20:48.328Z,11.90
2022-09-01T11:23:23.115Z,11.20
2022-09-01T11:26:18.973Z,12.82
2022-09-01T11:28:43.403Z,13.10
2022-09-01T11:31:31.201Z,12.30
2022-09-01T11:34:05.972Z,14.98
2022-09-01T11:36:36.378Z,11.30
2022-09-01T11:39:07.147Z,12.48
2022-09-01T11:41:36.585Z,13.07
2022-09-01T11:44:12.812Z,11.32
2022-09-01T11:46:45.567Z,12.52
2022-09-01T11:49:27.434Z,16.13
2022-09-01T11:51:55.658Z,11.85
2022-09-01T11:54:24.422Z,19.48
2022-09-01T11:56:52.737Z,13.48
2022-09-01T11:59:35.026Z,14.15
2022-09-01T12:02:05.485Z,20.08
2022-09-01T12:04:36.718Z,12.15
2022-09-01T12:07:08.065Z,14.48
2022-09-01T12:09:40.350Z,13.13
2022-09-01T12:12:09.428Z,12.02
2022-09-01T12:15:02.068Z,11.93
2022-09-01T12:17:27.612Z,15.45
2022-09-01T12:19:55.538Z,11.85
2022-09-01T12:22:23.947Z,13.48
2022-09-01T12:24:53.402Z,15.10
2022-09-01T12:27:23.290Z,11.70
2022-09-01T12:29:52.522Z,11.75
2022-09-01T12:32:20.888Z,11.48
2022-09-01T12:35:01.480Z,13.38
2022-09-01T12:37:30.188Z,12.25
2022-09-01T12:39:59.151Z,13.25
2022-09-01T12:42:30.115Z,11.82
2022-09-01T12:45:10.735Z,14.45
2022-09-01T12:47:50.355Z,11.45
2022-09-01T12:50:37.064Z,15.45
2022-09-01T12:53:05.846Z,13.10
2022-09-01T12:55:53.547Z,12.38
2022-09-01T12:58:22.711Z,15.68
2022-09-01T13:00:56.297Z,12.30
2022-09-01T13:03:24.497Z,14.00
2022-09-01T13:05:55.168Z,12.32
2022-09-01T13:08:27.070Z,12.25
2022-09-01T13:10:58.656Z,15.02
2022-09-01T13:13:27.251Z,13.98
2022-09-01T13:15:57.594Z,12.18
2022-09-01T13:18:26.298Z,11.80
2022-09-01T13:20:56.727Z,12.18
2022-09-01T13:23:25.151Z,15.25
2022-09-01T13:25:53.025Z,11.63
2022-09-01T13:36:48.435Z,11.50
2022-09-01T13:39:18.790Z,15.35
2022-09-01T13:41:48.691Z,12.18
2022-09-01T13:44:17.715Z,11.55
2022-09-01T13:47:28.233Z,15.00
2022-09-01T13:49:42.564Z,12.45
2022-09-01T13:52:14.080Z,15.05
2022-09-01T13:54:44.342Z,18.52
2022-09-01T13:57:15.491Z,14.77
2022-09-01T13:59:43.225Z,13.98
2022-09-01T14:02:11.429Z,13.05
2022-09-01T14:04:39.335Z,12.90
2022-09-01T14:07:07.474Z,14.27
2022-09-01T14:09:37.256Z,12.73
2022-09-01T14:12:06.467Z,13.98
2022-09-01T14:17:23.098Z,13.82
2022-09-01T14:19:52.541Z,12.27
2022-09-01T14:22:20.505Z,13.85
2022-09-01T14:24:49.774Z,12.10
2022-09-01T14:27:17.676Z,18.60
2022-09-01T14:29:50.347Z,13.25
2022-09-01T14:32:27.131Z,12.70
2022-09-01T14:34:56.717Z,13.05
2022-09-01T14:37:24.940Z,13.10
2022-09-01T14:39:55.217Z,12.07
2022-09-01T14:42:25.887Z,12.38
2022-09-01T14:44:54.155Z,15.90
2022-09-01T14:47:24.881Z,12.63
2022-09-01T14:49:53.370Z,11.52
2022-09-01T14:52:22.204Z,12.85
2022-09-01T14:54:50.557Z,12.07
2022-09-01T14:57:29.347Z,13.43
2022-09-01T14:59:59.590Z,17.33
2022-09-01T15:02:29.090Z,15.65
2022-09-01T15:04:57.238Z,14.48
2022-09-01T15:07:25.346Z,14.77
2022-09-01T15:09:53.878Z,14.25
2022-09-01T15:12:23.023Z,12.68
2022-09-01T15:14:51.868Z,13.15
2022-09-01T15:17:19.738Z,12.95
2022-09-01T15:19:47.798Z,14.05
2022-09-01T15:22:16.663Z,13.10
2022-09-01T15:24:45.002Z,14.95
2022-09-01T15:27:12.858Z,13.57
2022-09-01T15:29:48.233Z,15.73
2022-09-01T15:32:28.045Z,14.07
2022-09-01T15:34:56.375Z,14.30
2022-09-01T15:37:24.237Z,13.43
2022-09-01T15:39:52.145Z,14.32
2022-09-01T15:42:21.964Z,13.43
2022-09-01T15:44:51.660Z,14.20
2022-09-01T15:47:19.736Z,16.60
2022-09-01T15:49:47.643Z,14.05
2022-09-01T15:52:17.062Z,14.27
2022-09-01T15:54:45.009Z,13.52
2022-09-01T15:57:13.260Z,14.85
2022-09-01T15:59:43.805Z,13.95
2022-09-01T16:02:15.406Z,15.77
2022-09-01T16:04:43.276Z,15.05
2022-09-01T16:07:11.415Z,14.20
2022-09-01T16:09:39.299Z,15.40
2022-09-01T16:12:07.916Z,15.80
2022-09-01T16:14:35.752Z,14.00
2022-09-01T16:17:05.899Z,13.20
2022-09-01T16:19:49.529Z,14.25
2022-09-01T16:22:22.718Z,15.55
2022-09-01T16:24:52.857Z,13.52
2022-09-01T16:27:22.003Z,14.88
2022-09-01T16:29:52.234Z,14.10
2022-09-01T16:32:23.773Z,16.73
2022-09-01T16:34:53.143Z,13.60
2022-09-01T16:37:30.250Z,13.40
2022-09-01T16:40:05.756Z,13.38
2022-09-01T16:42:40.941Z,13.00
2022-09-01T16:45:12.764Z,13.15
2022-09-01T16:47:45.104Z,13.35
2022-09-01T16:50:16.653Z,14.45
2022-09-01T16:52:53.814Z,14.35
2022-09-01T16:55:26.258Z,18.50
2022-09-01T16:57:59.390Z,15.70
2022-09-01T17:00:31.967Z,14.68
2022-09-01T17:03:08.782Z,15.23
2022-09-01T17:05:47.159Z,16.47
2022-09-01T17:08:20.020Z,16.27
2022-09-01T17:10:54.159Z,17.83
2022-09-01T17:13:24.706Z,16.93
2022-09-01T17:16:01.240Z,16.97
2022-09-01T17:18:32.410Z,17.00
2022-09-01T17:21:02.515Z,15.93
2022-09-01T17:23:38.328Z,16.70
2022-09-01T17:26:08.534Z,15.33
2022-09-01T17:28:37.784Z,17.27
2022-09-01T17:31:14.433Z,16.57
2022-09-01T17:33:54.136Z,17.47
2022-09-01T17:36:25.885Z,15.33
2022-09-01T17:38:57.381Z,15.33
2022-09-01T17:41:34.833Z,15.00
2022-09-01T17:44:07.242Z,14.20
2022-09-01T17:46:39.289Z,13.87
2022-09-01T17:49:11.455Z,14.67
2022-09-01T17:51:42.934Z,15.07
2022-09-01T17:54:15.645Z,16.00
2022-09-01T17:56:48.651Z,16.57
2022-09-01T17:59:18.134Z,15.07
2022-09-01T18:01:51.901Z,15.30
2022-09-01T18:04:35.881Z,14.03
2022-09-01T18:07:06.712Z,15.97
2022-09-01T18:09:43.371Z,16.20
2022-09-01T18:12:14.714Z,16.17
2022-09-01T18:14:43.570Z,14.47
2022-09-01T18:17:15.172Z,15.60
2022-09-01T18:19:46.362Z,18.50
2022-09-01T18:22:16.472Z,14.77
2022-09-01T18:24:49.023Z,17.63
2022-09-01T18:27:16.983Z,13.30
2022-09-01T18:29:48.135Z,18.73
2022-09-01T18:32:23.056Z,13.83
2022-09-01T18:35:11.837Z,14.53
2022-09-01T18:37:46.377Z,12.37
2022-09-01T18:40:19.609Z,13.70
2022-09-01T18:42:51.971Z,12.40
2022-09-01T18:45:26.018Z,11.80
2022-09-01T18:48:00.639Z,13.00
2022-09-01T18:50:31.167Z,12.37
2022-09-01T18:53:03.831Z,11.67
2022-09-01T18:55:39.827Z,15.57
2022-09-01T18:58:10.169Z,11.80
2022-09-01T19:00:45.330Z,12.00
2022-09-01T19:03:25.476Z,13.63
2022-09-01T19:05:59.158Z,13.30
2022-09-01T19:08:33.303Z,12.53
2022-09-01T19:11:05.155Z,12.10
2022-09-01T19:13:41.224Z,12.80
2022-09-01T19:16:14.633Z,14.67
2022-09-01T19:18:44.953Z,13.07
2022-09-01T19:21:18.280Z,14.97
2022-09-01T19:23:50.058Z,14.23
2022-09-01T19:26:23.099Z,12.67
2022-09-01T19:28:52.474Z,14.37
2022-09-01T19:31:24.398Z,15.73
2022-09-01T19:33:54.460Z,15.03
2022-09-01T19:36:26.981Z,15.43
2022-09-01T19:38:55.118Z,14.07
2022-09-01T19:41:28.460Z,13.23
2022-09-01T19:43:59.405Z,14.83
2022-09-01T19:46:30.845Z,13.20
2022-09-01T19:49:04.144Z,12.97
2022-09-01T19:51:39.680Z,17.57
2022-09-01T19:54:10.370Z,16.73
2022-09-01T19:56:49.416Z,14.53
2022-09-01T19:59:20.070Z,14.43
2022-09-01T20:01:51.408Z,17.37
2022-09-01T20:04:24.416Z,16.70
2022-09-01T20:06:56.725Z,12.67
2022-09-01T20:09:27.159Z,16.60
2022-09-01T20:11:59.085Z,14.93
2022-09-01T20:14:34.290Z,15.63
2022-09-01T20:17:03.726Z,14.33
2022-09-01T20:19:36.578Z,14.80
2022-09-01T20:22:07.951Z,13.63
2022-09-01T20:24:38.527Z,14.60
2022-09-01T20:27:11.835Z,15.37
2022-09-01T20:29:42.535Z,14.80
2022-09-01T20:32:11.100Z,15.23
2022-09-01T20:34:42.219Z,15.43
2022-09-01T20:37:12.669Z,17.27
2022-09-01T20:39:59.827Z,16.67
2022-09-01T20:42:32.699Z,15.70
2022-09-01T20:45:01.241Z,16.80
2022-09-01T20:47:30.228Z,15.50
2022-09-01T20:49:58.870Z,15.23
2022-09-01T20:52:30.129Z,15.03
2022-09-01T20:55:00.957Z,15.70
2022-09-01T20:57:36.803Z,15.57
2022-09-01T21:00:07.938Z,15.13
2022-09-01T21:02:49.769Z,14.57
2022-09-01T21:05:23.307Z,15.37
2022-09-01T21:07:56.652Z,14.57
2022-09-01T21:10:30.261Z,16.83
2022-09-01T21:13:05.281Z,16.03
2022-09-01T21:15:38.770Z,15.17
2022-09-01T21:18:13.371Z,16.60
2022-09-01T21:20:45.971Z,15.77
2022-09-01T21:23:16.291Z,14.97
2022-09-01T21:25:45.127Z,15.63
2022-09-01T21:28:17.724Z,18.47
2022-09-01T21:30:45.898Z,14.13
2022-09-01T21:33:13.918Z,15.17
2022-09-01T21:35:41.817Z,14.57
2022-09-01T21:38:09.862Z,15.43
2022-09-01T21:40:37.968Z,13.80
2022-09-01T21:43:08.299Z,14.73
2022-09-01T21:45:46.286Z,14.77
2022-09-01T21:48:14.251Z,15.23
2022-09-01T21:50:42.298Z,13.47
2022-09-01T21:53:10.624Z,14.17
2022-09-01T21:55:38.536Z,13.13
2022-09-01T21:58:06.221Z,14.93
2022-09-01T22:00:39.640Z,15.23
2022-09-01T22:03:09.124Z,14.40
2022-09-01T22:05:41.715Z,17.87
2022-09-01T22:08:12.232Z,15.50
2022-09-01T22:10:42.684Z,16.80
2022-09-01T22:13:10.969Z,14.70
2022-09-01T22:15:42.565Z,14.80
2022-09-01T22:18:11.921Z,14.27
2022-09-01T22:20:40.134Z,15.67
2022-09-01T22:23:08.502Z,13.57
2022-09-01T22:25:36.998Z,17.37
2022-09-01T22:28:06.213Z,14.17
2022-09-01T22:30:34.668Z,14.57
2022-09-01T22:33:02.789Z,13.20
2022-09-01T22:35:32.593Z,15.60
2022-09-01T22:38:00.458Z,16.13
2022-09-01T22:40:28.417Z,14.40
2022-09-01T22:42:56.372Z,14.97
2022-09-01T22:45:24.075Z,14.00
2022-09-01T22:47:51.999Z,14.37
2022-09-01T22:50:19.757Z,14.87
2022-09-01T22:52:51.121Z,15.30
2022-09-01T22:55:19.328Z,13.70
2022-09-01T22:57:48.131Z,18.80
2022-09-01T23:00:16.167Z,18.70
2022-09-01T23:02:44.982Z,14.00
2022-09-01T23:05:12.921Z,13.73
2022-09-01T23:07:40.890Z,16.10
2022-09-01T23:10:11.193Z,18.27
2022-09-01T23:12:38.901Z,16.67
2022-09-01T23:15:07.244Z,15.00
2022-09-01T23:17:36.914Z,20.13
2022-09-01T23:20:05.908Z,19.93
2022-09-01T23:22:33.694Z,17.87
2022-09-01T23:25:01.661Z,15.83
2022-09-01T23:27:32.132Z,17.53
2022-09-01T23:30:00.521Z,18.80
2022-09-01T23:32:28.686Z,17.10
2022-09-01T23:34:56.931Z,16.53
2022-09-01T23:37:24.653Z,13.83
2022-09-01T23:39:53.195Z,14.00
2022-09-01T23:42:21.544Z,17.50
2022-09-01T23:44:50.798Z,17.33
2022-09-01T23:47:18.661Z,15.70
2022-09-01T23:49:46.660Z,16.47
2022-09-01T23:52:14.705Z,19.37
2022-09-01T23:54:43.692Z,15.53
2022-09-01T23:57:12.801Z,20.53
2022-09-01T23:59:40.529Z,16.73
